Time;durP1;ratioP1;P1;durP2;ratioP2;P2;SDS_P1;SDS_P2;PMS_P1;PMS_P2;Temp;Humidity;BMP_temperature;BMP_pressure;BME280_temperature;BME280_humidity;BME280_pressure;Samples;Min_cycle;Max_cycle;Signal;HPM_P1;HPM_P2
2024/01/15 00:01:12;;;;;;;9.47;1.83;;;;;;;;;;5033715;28;20317;-76
2024/01/15 00:03:37;;;;;;;8.20;1.73;;;;;;;;;;5032833;28;20231;-76
2024/01/15 00:06:03;;;;;;;11.23;1.80;;;;;;;;;;5031697;28;20745;-76
2024/01/15 00:08:28;;;;;;;5.33;1.47;;;;;;;;;;5032760;28;20189;-76
2024/01/15 00:10:54;;;;;;;5.70;1.60;;;;;;;;;;5035064;28;20190;-76
2024/01/15 00:13:19;;;;;;;9.13;1.40;;;;;;;;;;5033419;28;20537;-76
2024/01/15 00:15:44;;;;;;;12.87;1.77;;;;;;;;;;5044917;28;20223;-76
2024/01/15 00:18:10;;;;;;;10.80;1.43;;;;;;;;;;5041490;28;20240;-76
2024/01/15 00:20:35;;;;;;;10.73;1.77;;;;;;;;;;5050430;28;20235;-77
2024/01/15 00:23:01;;;;;;;10.67;1.30;;;;;;;;;;5043353;28;20216;-77
2024/01/15 00:25:26;;;;;;;7.37;1.60;;;;;;;;;;5046615;28;20185;-76
2024/01/15 00:27:52;;;;;;;6.23;1.50;;;;;;;;;;5042473;28;20188;-76
2024/01/15 00:30:17;;;;;;;10.43;1.60;;;;;;;;;;5049836;28;20185;-77
2024/01/15 00:32:42;;;;;;;13.70;2.00;;;;;;;;;;5016964;28;20259;-76
2024/01/15 00:35:08;;;;;;;7.47;1.40;;;;;;;;;;5039455;28;20182;-77
2024/01/15 00:37:33;;;;;;;10.07;1.40;;;;;;;;;;5049923;28;20209;-77
2024/01/15 00:39:59;;;;;;;8.97;1.47;;;;;;;;;;5033050;28;20201;-77
2024/01/15 00:42:24;;;;;;;16.77;1.90;;;;;;;;;;5044923;28;20597;-76
2024/01/15 00:44:50;;;;;;;11.23;1.20;;;;;;;;;;5046497;28;20660;-76
2024/01/15 00:47:15;;;;;;;6.97;1.37;;;;;;;;;;5049996;28;20531;-76
2024/01/15 00:49:40;;;;;;;11.07;1.20;;;;;;;;;;5037516;28;20186;-76
2024/01/15 00:52:06;;;;;;;14.03;1.47;;;;;;;;;;5040562;28;20276;-76
2024/01/15 00:54:31;;;;;;;6.80;1.20;;;;;;;;;;5041632;28;20663;-76
2024/01/15 00:56:57;;;;;;;13.83;1.43;;;;;;;;;;5039489;28;20191;-76
2024/01/15 00:59:22;;;;;;;10.53;1.33;;;;;;;;;;5040615;28;20200;-76
2024/01/15 01:01:47;;;;;;;9.73;1.00;;;;;;;;;;5036757;28;20200;-76
2024/01/15 01:04:13;;;;;;;10.60;0.80;;;;;;;;;;5029722;28;20185;-76
2024/01/15 01:06:40;;;;;;;7.13;1.37;;;;;;;;;;5041455;28;20254;-76
2024/01/15 01:09:05;;;;;;;14.27;1.60;;;;;;;;;;5040699;28;20520;-76
2024/01/15 01:11:31;;;;;;;8.40;1.27;;;;;;;;;;5038401;28;20364;-76
2024/01/15 01:13:56;;;;;;;10.43;1.03;;;;;;;;;;5037064;28;20190;-76
2024/01/15 01:16:22;;;;;;;14.63;1.30;;;;;;;;;;5039873;28;20285;-76
2024/01/15 01:18:47;;;;;;;10.37;1.30;;;;;;;;;;5017542;28;20713;-76
2024/01/15 01:21:13;;;;;;;13.10;2.20;;;;;;;;;;5036284;28;20590;-76
2024/01/15 01:23:38;;;;;;;10.67;1.37;;;;;;;;;;5042070;28;20197;-77
2024/01/15 01:26:04;;;;;;;13.97;1.60;;;;;;;;;;5043595;28;20705;-76
2024/01/15 01:28:29;;;;;;;9.87;1.00;;;;;;;;;;5043797;28;20499;-76
2024/01/15 01:30:54;;;;;;;14.33;1.03;;;;;;;;;;5031062;28;20197;-77
2024/01/15 01:33:20;;;;;;;12.03;1.63;;;;;;;;;;5041373;28;20181;-76
2024/01/15 01:35:46;;;;;;;12.07;1.53;;;;;;;;;;5040564;28;20233;-76
2024/01/15 01:38:12;;;;;;;8.20;1.30;;;;;;;;;;5032144;28;20570;-76
2024/01/15 01:40:38;;;;;;;8.73;1.60;;;;;;;;;;5041230;28;20192;-76
2024/01/15 01:43:05;;;;;;;6.93;1.33;;;;;;;;;;5040127;28;20193;-76
2024/01/15 01:45:30;;;;;;;12.37;1.50;;;;;;;;;;5030468;28;20182;-76
2024/01/15 01:47:56;;;;;;;13.77;1.40;;;;;;;;;;5025744;28;20574;-76
2024/01/15 01:50:22;;;;;;;15.57;1.43;;;;;;;;;;5040229;28;20769;-76
2024/01/15 01:52:48;;;;;;;12.17;1.60;;;;;;;;;;5042611;28;20186;-76
2024/01/15 01:55:14;;;;;;;11.13;1.27;;;;;;;;;;5033112;28;20193;-76
2024/01/15 01:57:41;;;;;;;8.90;1.43;;;;;;;;;;5030201;28;20575;-76
2024/01/15 02:00:07;;;;;;;10.47;1.67;;;;;;;;;;5041936;28;20186;-76
2024/01/15 02:02:33;;;;;;;15.00;1.50;;;;;;;;;;5031642;28;20193;-76
2024/01/15 02:04:59;;;;;;;12.23;1.53;;;;;;;;;;5049775;28;20562;-76
2024/01/15 02:07:25;;;;;;;6.60;1.27;;;;;;;;;;5034832;28;20197;-76
2024/01/15 02:09:50;;;;;;;10.80;1.67;;;;;;;;;;5050786;28;20193;-76
2024/01/15 02:12:16;;;;;;;10.13;1.33;;;;;;;;;;5033798;28;20277;-74
2024/01/15 02:14:41;;;;;;;12.27;1.67;;;;;;;;;;5046191;28;20316;-74
2024/01/15 02:17:07;;;;;;;8.57;1.57;;;;;;;;;;5049393;28;20276;-74
2024/01/15 02:19:32;;;;;;;14.43;1.73;;;;;;;;;;5031257;28;20225;-74
2024/01/15 02:21:58;;;;;;;11.17;1.43;;;;;;;;;;5035682;28;20197;-76
2024/01/15 02:24:23;;;;;;;8.90;1.30;;;;;;;;;;5048672;28;20280;-76
2024/01/15 02:26:49;;;;;;;7.77;1.30;;;;;;;;;;5031672;28;20190;-76
2024/01/15 02:29:15;;;;;;;15.30;1.63;;;;;;;;;;5038513;28;20193;-75
2024/01/15 02:31:41;;;;;;;10.90;1.27;;;;;;;;;;5047069;28;20243;-74
2024/01/15 02:34:06;;;;;;;11.33;1.77;;;;;;;;;;5035722;28;20204;-74
2024/01/15 02:36:32;;;;;;;17.67;1.30;;;;;;;;;;5041599;28;20635;-74
2024/01/15 02:38:57;;;;;;;9.43;1.43;;;;;;;;;;5040722;28;20272;-74
2024/01/15 02:41:22;;;;;;;9.40;1.80;;;;;;;;;;5040857;28;20201;-74
2024/01/15 02:43:48;;;;;;;12.93;1.37;;;;;;;;;;5046208;28;20193;-74
2024/01/15 02:46:13;;;;;;;10.57;1.50;;;;;;;;;;5041552;28;20209;-74
2024/01/15 02:48:39;;;;;;;13.90;1.70;;;;;;;;;;5045813;28;20240;-74
2024/01/15 02:51:04;;;;;;;9.87;1.53;;;;;;;;;;5037733;28;20200;-74
2024/01/15 02:53:29;;;;;;;11.27;1.63;;;;;;;;;;5036388;28;20462;-74
2024/01/15 02:55:55;;;;;;;9.23;1.13;;;;;;;;;;5037558;28;20288;-74
2024/01/15 02:58:21;;;;;;;14.37;1.53;;;;;;;;;;5048498;28;20217;-74
2024/01/15 03:00:47;;;;;;;8.63;1.50;;;;;;;;;;5044603;28;20189;-74
2024/01/15 03:03:12;;;;;;;15.43;1.60;;;;;;;;;;5012198;28;20189;-74
2024/01/15 03:05:38;;;;;;;16.33;1.33;;;;;;;;;;5042697;28;20233;-74
2024/01/15 03:08:04;;;;;;;18.97;1.70;;;;;;;;;;5024799;28;20618;-74
2024/01/15 03:10:29;;;;;;;15.07;1.50;;;;;;;;;;5043093;28;20193;-74
2024/01/15 03:12:55;;;;;;;10.50;1.07;;;;;;;;;;5035939;28;20330;-74
2024/01/15 03:15:20;;;;;;;10.03;1.20;;;;;;;;;;5043725;28;20234;-74
2024/01/15 03:17:45;;;;;;;12.93;1.20;;;;;;;;;;5039293;28;20209;-74
2024/01/15 03:20:11;;;;;;;12.10;1.60;;;;;;;;;;5031502;28;20194;-75
2024/01/15 03:22:37;;;;;;;19.73;2.10;;;;;;;;;;5027348;28;20262;-74
2024/01/15 03:25:03;;;;;;;10.07;1.00;;;;;;;;;;5021982;28;20497;-74
2024/01/15 03:27:29;;;;;;;12.67;1.33;;;;;;;;;;5029630;28;20204;-75
2024/01/15 03:29:54;;;;;;;8.63;1.03;;;;;;;;;;5046714;28;20273;-75
2024/01/15 03:32:20;;;;;;;13.93;1.70;;;;;;;;;;5033097;28;20438;-75
2024/01/15 03:34:47;;;;;;;10.47;1.17;;;;;;;;;;5037803;28;20578;-75
2024/01/15 03:37:13;;;;;;;11.10;1.40;;;;;;;;;;5039296;28;20661;-75
2024/01/15 03:39:38;;;;;;;12.57;1.27;;;;;;;;;;5026511;28;20205;-75
2024/01/15 03:42:04;;;;;;;7.37;1.00;;;;;;;;;;5023626;28;20189;-75
2024/01/15 03:44:29;;;;;;;6.13;0.90;;;;;;;;;;5036046;28;20744;-75
2024/01/15 03:46:55;;;;;;;13.03;1.37;;;;;;;;;;5029009;28;20279;-75
2024/01/15 03:49:20;;;;;;;7.20;1.63;;;;;;;;;;5032116;28;20209;-74
2024/01/15 03:51:46;;;;;;;11.63;1.00;;;;;;;;;;5038331;28;20252;-75
2024/01/15 03:54:11;;;;;;;9.07;0.97;;;;;;;;;;5027806;28;20197;-75
2024/01/15 03:56:37;;;;;;;10.17;1.30;;;;;;;;;;5031024;28;20182;-74
2024/01/15 03:59:02;;;;;;;10.90;0.93;;;;;;;;;;5028705;28;20297;-74
2024/01/15 04:01:28;;;;;;;9.33;1.17;;;;;;;;;;5033514;28;20556;-75
2024/01/15 04:03:54;;;;;;;7.83;1.13;;;;;;;;;;5036467;28;20661;-75
2024/01/15 04:06:19;;;;;;;9.13;1.43;;;;;;;;;;5032681;28;20197;-74
2024/01/15 04:08:45;;;;;;;10.07;1.07;;;;;;;;;;5042111;28;20185;-74
2024/01/15 04:11:10;;;;;;;6.40;0.90;;;;;;;;;;5037127;28;20598;-74
2024/01/15 04:13:36;;;;;;;11.10;1.30;;;;;;;;;;5035538;28;20653;-74
2024/01/15 04:16:01;;;;;;;8.53;1.30;;;;;;;;;;5033570;28;20256;-74
2024/01/15 04:18:26;;;;;;;11.47;1.20;;;;;;;;;;5038726;28;20279;-75
2024/01/15 04:20:52;;;;;;;9.97;1.13;;;;;;;;;;5039291;28;20595;-74
2024/01/15 04:23:17;;;;;;;7.90;0.83;;;;;;;;;;5033643;28;20189;-74
2024/01/15 04:25:43;;;;;;;6.93;0.90;;;;;;;;;;5032353;28;20191;-74
2024/01/15 04:28:09;;;;;;;11.33;1.20;;;;;;;;;;5021480;28;20182;-75
2024/01/15 04:30:35;;;;;;;9.10;1.20;;;;;;;;;;5038295;28;20281;-75
2024/01/15 04:33:00;;;;;;;12.90;1.20;;;;;;;;;;5043828;28;20324;-76
2024/01/15 04:35:26;;;;;;;11.90;1.33;;;;;;;;;;5036333;28;20190;-75
2024/01/15 04:37:52;;;;;;;11.97;1.07;;;;;;;;;;5031350;28;20574;-75
2024/01/15 04:40:17;;;;;;;10.83;1.30;;;;;;;;;;5034928;28;20205;-76
2024/01/15 04:42:43;;;;;;;10.47;1.03;;;;;;;;;;5034369;28;20202;-75
2024/01/15 04:45:08;;;;;;;10.20;1.00;;;;;;;;;;5037427;28;20181;-75
2024/01/15 04:47:34;;;;;;;10.73;1.17;;;;;;;;;;5044552;28;20585;-75
2024/01/15 04:50:00;;;;;;;6.67;0.87;;;;;;;;;;5043378;28;20206;-75
2024/01/15 04:52:25;;;;;;;8.70;1.00;;;;;;;;;;5045470;28;20554;-75
2024/01/15 04:54:50;;;;;;;15.47;0.90;;;;;;;;;;5041734;28;20201;-75
2024/01/15 04:57:16;;;;;;;6.03;1.07;;;;;;;;;;5038907;28;20594;-76
2024/01/15 04:59:41;;;;;;;13.07;1.43;;;;;;;;;;5040909;28;20190;-75
2024/01/15 05:02:07;;;;;;;9.77;1.10;;;;;;;;;;5042643;28;20641;-76
2024/01/15 05:04:32;;;;;;;10.87;1.03;;;;;;;;;;5018409;28;20213;-75
2024/01/15 05:06:58;;;;;;;8.20;0.80;;;;;;;;;;5044725;28;20209;-75
2024/01/15 05:09:23;;;;;;;11.67;0.90;;;;;;;;;;5041660;28;20178;-75
2024/01/15 05:11:49;;;;;;;13.57;1.77;;;;;;;;;;5040494;28;20289;-76
2024/01/15 05:14:14;;;;;;;9.63;1.10;;;;;;;;;;5029059;28;20216;-75
2024/01/15 05:16:46;;;;;;;3.13;0.67;;;;;;;;;;5031841;28;20193;-75
2024/01/15 05:19:11;;;;;;;7.93;0.70;;;;;;;;;;5024620;28;20213;-75
2024/01/15 05:21:37;;;;;;;5.63;0.80;;;;;;;;;;5037731;28;20365;-75
2024/01/15 05:24:02;;;;;;;9.40;1.00;;;;;;;;;;5020604;28;20233;-76
2024/01/15 05:26:28;;;;;;;8.70;1.23;;;;;;;;;;5025727;28;20214;-75
2024/01/15 05:28:53;;;;;;;5.27;0.80;;;;;;;;;;5016752;28;20674;-75
2024/01/15 05:31:18;;;;;;;5.23;0.67;;;;;;;;;;5036554;28;20194;-75
2024/01/15 05:33:44;;;;;;;13.20;1.27;;;;;;;;;;5049505;28;20219;-75
2024/01/15 05:36:09;;;;;;;6.17;0.90;;;;;;;;;;5047286;28;20204;-75
2024/01/15 05:38:35;;;;;;;7.53;1.00;;;;;;;;;;5036385;28;20214;-75
2024/01/15 05:41:00;;;;;;;12.03;0.90;;;;;;;;;;5045335;28;20226;-75
2024/01/15 05:43:26;;;;;;;6.00;0.60;;;;;;;;;;5020324;28;20252;-75
2024/01/15 05:45:51;;;;;;;7.13;1.00;;;;;;;;;;5044293;28;20396;-75
2024/01/15 05:48:16;;;;;;;10.73;0.90;;;;;;;;;;5041598;28;20230;-75
2024/01/15 05:50:42;;;;;;;5.43;0.67;;;;;;;;;;5038640;28;20248;-75
2024/01/15 05:53:07;;;;;;;10.00;0.90;;;;;;;;;;5041484;28;20260;-75
2024/01/15 05:55:33;;;;;;;5.83;0.80;;;;;;;;;;5043073;28;20185;-75
2024/01/15 05:57:58;;;;;;;3.63;0.83;;;;;;;;;;5032068;28;20618;-75
2024/01/15 06:00:24;;;;;;;7.53;0.77;;;;;;;;;;5037892;28;20194;-75
2024/01/15 06:02:49;;;;;;;6.33;0.77;;;;;;;;;;5042884;28;20209;-76
2024/01/15 06:05:15;;;;;;;10.67;1.13;;;;;;;;;;5022500;28;20752;-75
2024/01/15 06:07:41;;;;;;;6.43;1.00;;;;;;;;;;5029001;28;20265;-75
2024/01/15 06:10:07;;;;;;;5.90;0.90;;;;;;;;;;5023549;28;20660;-75
2024/01/15 06:12:33;;;;;;;8.40;0.73;;;;;;;;;;5040117;28;20650;-75
2024/01/15 06:14:59;;;;;;;7.37;1.00;;;;;;;;;;5040532;28;20310;-75
2024/01/15 06:17:24;;;;;;;5.03;1.50;;;;;;;;;;5034606;28;20974;-75
2024/01/15 06:19:50;;;;;;;9.43;0.80;;;;;;;;;;5031005;28;20347;-75
2024/01/15 06:22:15;;;;;;;7.63;1.00;;;;;;;;;;5037283;28;20649;-75
2024/01/15 06:24:41;;;;;;;7.57;0.90;;;;;;;;;;5037171;28;20232;-75
2024/01/15 06:27:06;;;;;;;7.17;0.70;;;;;;;;;;5035066;28;20334;-75
2024/01/15 06:29:32;;;;;;;9.90;0.90;;;;;;;;;;5036712;28;20185;-75
2024/01/15 06:31:57;;;;;;;7.73;1.10;;;;;;;;;;5035734;28;20243;-75
2024/01/15 06:34:23;;;;;;;5.70;1.20;;;;;;;;;;5036190;28;20190;-76
2024/01/15 06:36:48;;;;;;;6.80;1.63;;;;;;;;;;5035896;28;20300;-76
2024/01/15 06:39:14;;;;;;;4.77;0.73;;;;;;;;;;5047056;28;20213;-76
2024/01/15 06:41:43;;;;;;;4.67;0.80;;;;;;;;;;5042680;28;20573;-76
2024/01/15 06:44:10;;;;;;;6.03;1.00;;;;;;;;;;5041044;28;20186;-75
2024/01/15 06:46:36;;;;;;;3.33;1.03;;;;;;;;;;5040548;28;20212;-75
2024/01/15 06:49:01;;;;;;;3.00;1.00;;;;;;;;;;5029801;28;20586;-75
2024/01/15 06:51:27;;;;;;;4.13;1.07;;;;;;;;;;5040955;28;20369;-75
2024/01/15 06:53:52;;;;;;;5.47;0.87;;;;;;;;;;5025482;28;20243;-75
2024/01/15 06:56:17;;;;;;;6.83;1.50;;;;;;;;;;5039868;28;20193;-75
2024/01/15 06:58:43;;;;;;;7.37;1.40;;;;;;;;;;5045282;28;20545;-76
2024/01/15 07:01:08;;;;;;;7.67;2.00;;;;;;;;;;5031779;28;20315;-75
2024/01/15 07:03:34;;;;;;;6.03;1.80;;;;;;;;;;5039512;28;20182;-75
2024/01/15 07:05:59;;;;;;;10.70;1.80;;;;;;;;;;5037119;28;20562;-75
2024/01/15 07:08:25;;;;;;;9.10;2.23;;;;;;;;;;5031637;28;20192;-75
2024/01/15 07:10:50;;;;;;;8.27;2.47;;;;;;;;;;5025240;28;20193;-76
2024/01/15 07:13:16;;;;;;;9.70;2.60;;;;;;;;;;5047581;28;20190;-76
2024/01/15 07:15:41;;;;;;;14.03;3.23;;;;;;;;;;5040434;28;20787;-76
2024/01/15 07:18:06;;;;;;;10.10;3.20;;;;;;;;;;5045638;28;20221;-75
2024/01/15 07:20:32;;;;;;;8.30;3.20;;;;;;;;;;5044103;28;20248;-75
2024/01/15 07:22:57;;;;;;;6.37;3.70;;;;;;;;;;5036326;28;20198;-75
2024/01/15 07:25:23;;;;;;;8.33;3.13;;;;;;;;;;5032575;28;20198;-75
2024/01/15 07:27:48;;;;;;;10.60;4.10;;;;;;;;;;5035771;28;20617;-75
2024/01/15 07:30:14;;;;;;;10.13;3.67;;;;;;;;;;5032571;28;20193;-75
2024/01/15 07:32:40;;;;;;;8.87;3.47;;;;;;;;;;5042135;28;20704;-75
2024/01/15 07:35:06;;;;;;;9.53;3.47;;;;;;;;;;5028690;28;20194;-75
2024/01/15 07:37:31;;;;;;;10.73;3.83;;;;;;;;;;5039258;28;20214;-76
2024/01/15 07:39:57;;;;;;;11.13;3.83;;;;;;;;;;5039504;28;20265;-76
2024/01/15 07:42:22;;;;;;;15.60;3.70;;;;;;;;;;5043392;28;20218;-75
2024/01/15 07:44:48;;;;;;;9.70;3.53;;;;;;;;;;5043828;28;20204;-75
2024/01/15 07:47:13;;;;;;;13.73;4.20;;;;;;;;;;5040298;28;20182;-76
2024/01/15 07:49:39;;;;;;;10.60;3.27;;;;;;;;;;5036390;28;20546;-76
2024/01/15 07:52:05;;;;;;;7.53;2.67;;;;;;;;;;5032456;28;20650;-75
2024/01/15 07:54:31;;;;;;;6.33;3.37;;;;;;;;;;5048992;28;20189;-76
2024/01/15 07:56:58;;;;;;;9.17;3.27;;;;;;;;;;5019361;28;20186;-75
2024/01/15 07:59:24;;;;;;;6.90;3.03;;;;;;;;;;5045717;28;20245;-76
2024/01/15 08:01:51;;;;;;;5.83;2.70;;;;;;;;;;5035853;28;20201;-76
2024/01/15 08:04:16;;;;;;;10.27;3.07;;;;;;;;;;5045116;28;20589;-75
2024/01/15 08:06:42;;;;;;;9.23;3.07;;;;;;;;;;5046391;28;20216;-75
2024/01/15 08:09:08;;;;;;;7.07;2.80;;;;;;;;;;5043721;28;20273;-75
2024/01/15 08:11:34;;;;;;;5.60;2.30;;;;;;;;;;5041984;28;20212;-75
2024/01/15 08:13:59;;;;;;;4.50;2.13;;;;;;;;;;5024493;28;20659;-76
2024/01/15 08:16:25;;;;;;;8.47;2.67;;;;;;;;;;5039950;28;20429;-75
2024/01/15 08:18:50;;;;;;;10.40;2.10;;;;;;;;;;5029633;28;20210;-75
2024/01/15 08:21:16;;;;;;;9.87;2.57;;;;;;;;;;5039256;28;20272;-75
2024/01/15 08:23:41;;;;;;;9.60;2.27;;;;;;;;;;5051729;28;20181;-75
2024/01/15 08:26:08;;;;;;;7.90;1.80;;;;;;;;;;5047067;28;20302;-75
2024/01/15 08:28:34;;;;;;;11.17;2.13;;;;;;;;;;5039833;28;20178;-75
2024/01/15 08:30:59;;;;;;;9.43;2.30;;;;;;;;;;5043450;28;20188;-75
2024/01/15 08:33:25;;;;;;;6.90;1.70;;;;;;;;;;5049295;28;20195;-74
2024/01/15 08:35:50;;;;;;;9.73;1.90;;;;;;;;;;5038486;28;20587;-75
2024/01/15 08:38:15;;;;;;;7.77;2.30;;;;;;;;;;5020885;28;20790;-75
2024/01/15 08:40:41;;;;;;;5.73;1.83;;;;;;;;;;5051228;28;20244;-76
2024/01/15 08:43:06;;;;;;;5.50;1.90;;;;;;;;;;5042814;28;20186;-75
2024/01/15 08:45:32;;;;;;;9.80;2.20;;;;;;;;;;5037326;28;20178;-75
2024/01/15 08:47:58;;;;;;;6.43;1.90;;;;;;;;;;5023128;28;20535;-75
2024/01/15 08:50:24;;;;;;;12.37;2.17;;;;;;;;;;5044825;28;20191;-74
2024/01/15 08:52:49;;;;;;;6.97;1.80;;;;;;;;;;5036161;28;20186;-76
2024/01/15 08:55:14;;;;;;;7.13;1.73;;;;;;;;;;5035752;28;20573;-74
2024/01/15 08:57:40;;;;;;;6.63;1.30;;;;;;;;;;5044713;28;20253;-74
2024/01/15 09:00:08;;;;;;;8.37;1.80;;;;;;;;;;5031075;28;20182;-74
2024/01/15 09:02:34;;;;;;;8.20;1.47;;;;;;;;;;5033256;28;20186;-75
2024/01/15 09:05:00;;;;;;;9.10;1.83;;;;;;;;;;5027769;28;20598;-75
2024/01/15 09:07:26;;;;;;;10.47;2.07;;;;;;;;;;5034029;28;20381;-74
2024/01/15 09:09:52;;;;;;;7.77;1.67;;;;;;;;;;5014087;28;20217;-75
2024/01/15 09:12:20;;;;;;;10.17;1.73;;;;;;;;;;5031931;28;20196;-75
2024/01/15 09:14:46;;;;;;;9.57;2.57;;;;;;;;;;5013366;28;20312;-75
2024/01/15 09:17:12;;;;;;;5.67;1.60;;;;;;;;;;5037910;28;20353;-75
2024/01/15 09:19:38;;;;;;;9.20;2.10;;;;;;;;;;5036982;28;20233;-75
2024/01/15 09:22:04;;;;;;;10.70;1.77;;;;;;;;;;5040108;28;20285;-75
2024/01/15 09:24:29;;;;;;;7.67;1.57;;;;;;;;;;5042515;28;20269;-75
2024/01/15 09:26:55;;;;;;;8.37;1.50;;;;;;;;;;5046152;28;20251;-75
2024/01/15 09:29:20;;;;;;;9.27;1.67;;;;;;;;;;5030952;28;20221;-75
2024/01/15 09:31:46;;;;;;;8.93;2.10;;;;;;;;;;5046660;28;20181;-75
2024/01/15 09:34:11;;;;;;;9.30;1.50;;;;;;;;;;5029334;28;20190;-75
2024/01/15 09:36:42;;;;;;;5.97;1.40;;;;;;;;;;5041038;28;20197;-75
2024/01/15 09:39:08;;;;;;;7.63;1.60;;;;;;;;;;5038386;28;20210;-75
2024/01/15 09:41:37;;;;;;;9.13;1.53;;;;;;;;;;5037509;28;20764;-75
2024/01/15 09:44:04;;;;;;;9.37;1.30;;;;;;;;;;5049545;28;20186;-76
2024/01/15 09:46:31;;;;;;;8.23;1.57;;;;;;;;;;5042378;28;20199;-76
2024/01/15 09:48:57;;;;;;;8.50;1.83;;;;;;;;;;5026713;28;20624;-75
2024/01/15 09:51:24;;;;;;;7.57;1.87;;;;;;;;;;5041466;28;20284;-75
2024/01/15 09:53:50;;;;;;;5.43;1.70;;;;;;;;;;5033296;28;20186;-76
2024/01/15 09:56:16;;;;;;;7.77;2.63;;;;;;;;;;5030982;28;20198;-75
2024/01/15 09:58:42;;;;;;;5.53;1.80;;;;;;;;;;5041684;28;20230;-75
2024/01/15 10:01:08;;;;;;;11.90;2.20;;;;;;;;;;5021352;28;20277;-75
2024/01/15 10:03:33;;;;;;;7.80;1.90;;;;;;;;;;5035446;28;20297;-75
2024/01/15 10:05:59;;;;;;;6.53;1.67;;;;;;;;;;5035364;28;20240;-75
2024/01/15 10:08:25;;;;;;;9.43;2.10;;;;;;;;;;5037294;28;20186;-76
2024/01/15 10:10:51;;;;;;;6.27;1.73;;;;;;;;;;5030187;28;20680;-76
2024/01/15 10:13:17;;;;;;;10.40;2.90;;;;;;;;;;5029206;28;20186;-76
2024/01/15 10:15:46;;;;;;;11.47;1.80;;;;;;;;;;5029320;28;20234;-76
2024/01/15 10:18:12;;;;;;;9.07;1.90;;;;;;;;;;5042133;28;20217;-76
2024/01/15 10:20:37;;;;;;;13.80;2.60;;;;;;;;;;5025203;28;20190;-76
2024/01/15 10:23:03;;;;;;;12.13;2.23;;;;;;;;;;5029533;28;20671;-76
2024/01/15 10:25:30;;;;;;;8.63;2.57;;;;;;;;;;5042356;28;20276;-76
2024/01/15 10:28:05;;;;;;;7.10;1.67;;;;;;;;;;5025769;28;20208;-77
2024/01/15 10:30:32;;;;;;;7.70;1.77;;;;;;;;;;5027708;28;20189;-76
2024/01/15 10:33:03;;;;;;;11.53;2.20;;;;;;;;;;5030331;28;20194;-76
2024/01/15 10:35:33;;;;;;;10.47;2.50;;;;;;;;;;5035343;28;20653;-77
2024/01/15 10:38:00;;;;;;;7.47;1.93;;;;;;;;;;5018057;28;20206;-76
2024/01/15 10:40:26;;;;;;;12.20;2.50;;;;;;;;;;5029799;28;20213;-76
2024/01/15 10:42:52;;;;;;;7.20;2.00;;;;;;;;;;5034780;28;20190;-76
2024/01/15 10:45:17;;;;;;;11.90;2.07;;;;;;;;;;5029521;28;20230;-76
2024/01/15 10:47:43;;;;;;;9.00;1.83;;;;;;;;;;5039861;28;20454;-76
2024/01/15 10:50:10;;;;;;;5.43;1.53;;;;;;;;;;5030176;28;20189;-76
2024/01/15 10:52:40;;;;;;;7.10;2.47;;;;;;;;;;5034729;28;20343;-76
2024/01/15 10:55:08;;;;;;;8.23;1.37;;;;;;;;;;5041920;28;20594;-76
2024/01/15 10:57:38;;;;;;;8.07;1.73;;;;;;;;;;5029251;28;20248;-76
2024/01/15 11:00:05;;;;;;;4.30;1.50;;;;;;;;;;5039174;28;20189;-76
2024/01/15 11:02:36;;;;;;;5.17;1.40;;;;;;;;;;5030984;28;20660;-77
2024/01/15 11:05:01;;;;;;;3.63;1.20;;;;;;;;;;5032431;28;20217;-77
2024/01/15 11:07:27;;;;;;;8.00;1.83;;;;;;;;;;5034099;28;20271;-76
2024/01/15 11:09:52;;;;;;;5.63;1.50;;;;;;;;;;5041235;28;20194;-76
2024/01/15 11:12:19;;;;;;;6.40;1.60;;;;;;;;;;5035819;28;20386;-76
2024/01/15 11:14:49;;;;;;;9.67;2.30;;;;;;;;;;5036588;28;20257;-76
2024/01/15 11:17:16;;;;;;;13.53;2.63;;;;;;;;;;5040404;28;20186;-76
2024/01/15 11:19:41;;;;;;;12.93;1.80;;;;;;;;;;5019831;28;20230;-76
2024/01/15 11:22:09;;;;;;;7.60;1.63;;;;;;;;;;5030112;28;20235;-76
2024/01/15 11:24:41;;;;;;;6.70;1.33;;;;;;;;;;5020735;28;20190;-77
2024/01/15 11:27:08;;;;;;;6.80;1.70;;;;;;;;;;5028450;28;20204;-76
2024/01/15 11:29:35;;;;;;;7.43;1.53;;;;;;;;;;5032205;28;20184;-76
2024/01/15 11:32:05;;;;;;;6.33;1.20;;;;;;;;;;5044017;28;20186;-76
2024/01/15 11:34:49;;;;;;;5.27;1.23;;;;;;;;;;5032161;28;20190;-76
2024/01/15 11:37:14;;;;;;;4.67;0.90;;;;;;;;;;5027286;28;20738;-76
2024/01/15 11:39:43;;;;;;;5.87;0.90;;;;;;;;;;5038937;28;20209;-76
2024/01/15 11:42:11;;;;;;;5.73;0.87;;;;;;;;;;5044228;28;20200;-76
2024/01/15 11:44:40;;;;;;;5.93;0.97;;;;;;;;;;5039924;28;20740;-76
2024/01/15 11:47:12;;;;;;;6.03;1.50;;;;;;;;;;5028333;28;20190;-76
2024/01/15 11:50:08;;;;;;;7.30;1.00;;;;;;;;;;5012743;28;20631;-77
2024/01/15 11:52:35;;;;;;;2.93;0.80;;;;;;;;;;5024510;28;20221;-76
2024/01/15 11:55:25;;;;;;;12.03;1.13;;;;;;;;;;5027259;28;20194;-76
2024/01/15 11:57:52;;;;;;;4.30;1.00;;;;;;;;;;5028422;28;20254;-76
2024/01/15 12:00:18;;;;;;;9.23;0.97;;;;;;;;;;5040543;28;20243;-77
2024/01/15 12:02:45;;;;;;;7.47;1.07;;;;;;;;;;5027995;28;20194;-76
2024/01/15 12:05:13;;;;;;;6.87;1.00;;;;;;;;;;5027641;28;20194;-76
2024/01/15 12:07:40;;;;;;;4.33;0.50;;;;;;;;;;5026485;28;20664;-77
2024/01/15 12:10:16;;;;;;;4.20;0.83;;;;;;;;;;5029655;28;20194;-77
2024/01/15 12:12:53;;;;;;;4.73;0.60;;;;;;;;;;5031610;28;20277;-77
2024/01/15 12:15:19;;;;;;;5.53;1.17;;;;;;;;;;5030796;28;20241;-77
2024/01/15 12:17:45;;;;;;;3.17;0.53;;;;;;;;;;5041666;28;20573;-77
2024/01/15 12:20:12;;;;;;;7.20;0.60;;;;;;;;;;5012231;28;20560;-77
2024/01/15 12:22:37;;;;;;;2.80;0.30;;;;;;;;;;5027651;28;20190;-77
2024/01/15 12:25:03;;;;;;;3.50;0.43;;;;;;;;;;5039456;28;20671;-77
2024/01/15 12:27:29;;;;;;;8.20;0.50;;;;;;;;;;5028492;28;20217;-77
2024/01/15 12:29:54;;;;;;;5.43;0.50;;;;;;;;;;5029310;28;20212;-77
2024/01/15 12:32:22;;;;;;;2.33;0.50;;;;;;;;;;5035545;28;20177;-77
2024/01/15 12:34:49;;;;;;;5.03;0.60;;;;;;;;;;5048302;28;20178;-77
2024/01/15 12:37:15;;;;;;;4.00;0.60;;;;;;;;;;5045483;28;20188;-77
2024/01/15 12:39:43;;;;;;;6.90;0.73;;;;;;;;;;5047811;28;20292;-77
2024/01/15 12:42:10;;;;;;;3.27;0.83;;;;;;;;;;5030306;28;20190;-77
2024/01/15 12:44:37;;;;;;;2.40;0.80;;;;;;;;;;5029810;28;20202;-77
2024/01/15 12:47:04;;;;;;;3.93;1.00;;;;;;;;;;5044185;28;20193;-76
2024/01/15 12:49:30;;;;;;;4.83;0.87;;;;;;;;;;5040540;28;20181;-77
2024/01/15 12:51:58;;;;;;;7.83;0.80;;;;;;;;;;5027046;28;20189;-76
2024/01/15 12:54:24;;;;;;;7.40;0.90;;;;;;;;;;5035746;28;20190;-77
2024/01/15 12:56:50;;;;;;;7.20;0.90;;;;;;;;;;5024417;28;20750;-77
2024/01/15 12:59:15;;;;;;;5.37;0.93;;;;;;;;;;5035133;28;20263;-76
2024/01/15 13:01:41;;;;;;;8.93;0.87;;;;;;;;;;5036844;28;20189;-76
2024/01/15 13:04:08;;;;;;;6.17;1.17;;;;;;;;;;5018083;28;20617;-76
2024/01/15 13:06:37;;;;;;;6.57;0.90;;;;;;;;;;5048926;28;20305;-76
2024/01/15 13:09:06;;;;;;;4.93;0.80;;;;;;;;;;5033104;28;20223;-76
2024/01/15 13:11:32;;;;;;;4.00;0.70;;;;;;;;;;5033644;28;20185;-76
2024/01/15 13:13:58;;;;;;;5.47;0.90;;;;;;;;;;5047222;28;20264;-77
2024/01/15 13:16:26;;;;;;;3.70;0.80;;;;;;;;;;5039174;28;20288;-77
2024/01/15 13:18:52;;;;;;;8.17;1.00;;;;;;;;;;5042175;28;20214;-77
2024/01/15 13:21:17;;;;;;;6.40;1.10;;;;;;;;;;5032287;28;20321;-78
2024/01/15 13:23:43;;;;;;;29.17;1.40;;;;;;;;;;5049443;28;20717;-79
2024/01/15 13:26:08;;;;;;;8.23;0.97;;;;;;;;;;5030395;28;20303;-78
2024/01/15 13:28:34;;;;;;;6.17;0.93;;;;;;;;;;5038036;28;20190;-78
2024/01/15 13:30:59;;;;;;;6.93;0.70;;;;;;;;;;5041135;28;20208;-78
2024/01/15 13:33:25;;;;;;;7.13;0.63;;;;;;;;;;5033723;28;20197;-78
2024/01/15 13:35:50;;;;;;;6.17;1.20;;;;;;;;;;5043546;28;20717;-78
2024/01/15 13:38:16;;;;;;;8.63;0.90;;;;;;;;;;5045503;28;20253;-78
2024/01/15 13:40:42;;;;;;;6.00;0.80;;;;;;;;;;5031128;28;20273;-78
2024/01/15 13:43:08;;;;;;;5.03;0.97;;;;;;;;;;5031140;28;20215;-78
2024/01/15 13:45:37;;;;;;;3.97;0.87;;;;;;;;;;5036861;28;20303;-78
2024/01/15 13:48:05;;;;;;;4.60;0.60;;;;;;;;;;5049627;28;20273;-78
2024/01/15 13:50:31;;;;;;;7.67;0.97;;;;;;;;;;5032377;28;20593;-77
2024/01/15 13:52:56;;;;;;;7.30;1.27;;;;;;;;;;5038278;28;20192;-77
2024/01/15 13:55:22;;;;;;;5.90;0.83;;;;;;;;;;5018048;28;20189;-77
2024/01/15 13:57:48;;;;;;;5.30;0.87;;;;;;;;;;5030818;28;20598;-77
2024/01/15 14:00:18;;;;;;;5.17;0.93;;;;;;;;;;5045517;28;20200;-77
2024/01/15 14:02:44;;;;;;;12.80;1.20;;;;;;;;;;5037511;28;20182;-77
2024/01/15 14:05:09;;;;;;;6.17;1.23;;;;;;;;;;5043395;28;20551;-77
2024/01/15 14:07:35;;;;;;;7.37;1.10;;;;;;;;;;5036236;28;20228;-77
2024/01/15 14:10:00;;;;;;;4.70;1.07;;;;;;;;;;5037671;28;20312;-77
2024/01/15 14:12:26;;;;;;;5.17;0.70;;;;;;;;;;5031198;28;20193;-77
2024/01/15 14:14:52;;;;;;;5.27;1.00;;;;;;;;;;5048664;28;20245;-77
2024/01/15 14:17:17;;;;;;;8.00;1.37;;;;;;;;;;5046762;28;20189;-77
2024/01/15 14:19:43;;;;;;;6.33;1.23;;;;;;;;;;5018828;28;20300;-77
2024/01/15 14:22:08;;;;;;;5.50;1.10;;;;;;;;;;5030138;28;20241;-77
2024/01/15 14:24:34;;;;;;;5.93;0.90;;;;;;;;;;5045054;28;20653;-77
2024/01/15 14:26:59;;;;;;;8.20;1.50;;;;;;;;;;5041422;28;20208;-77
2024/01/15 14:29:26;;;;;;;11.23;1.63;;;;;;;;;;5032385;28;20281;-77
2024/01/15 14:31:52;;;;;;;8.03;1.20;;;;;;;;;;5043240;28;20202;-77